sensor_id;sensor_type;location;lat;lon;timestamp;P1;durP1;ratioP1;P2;durP2;ratioP2
26908;SDS011;14477;51.038;4.588;2023-04-25T00:01:30;4.07;;;1.85;;
26908;SDS011;14477;51.038;4.588;2023-04-25T00:03:58;4.55;;;2.03;;
26908;SDS011;14477;51.038;4.588;2023-04-25T00:06:24;5.13;;;2.00;;
26908;SDS011;14477;51.038;4.588;2023-04-25T00:08:52;4.93;;;1.85;;
26908;SDS011;14477;51.038;4.588;2023-04-25T00:11:19;5.20;;;2.00;;
26908;SDS011;14477;51.038;4.588;2023-04-25T00:13:45;5.40;;;2.10;;
26908;SDS011;14477;51.038;4.588;2023-04-25T00:16:11;5.05;;;2.25;;
26908;SDS011;14477;51.038;4.588;2023-04-25T00:18:39;3.85;;;1.85;;
26908;SDS011;14477;51.038;4.588;2023-04-25T00:21:06;5.43;;;2.00;;
26908;SDS011;14477;51.038;4.588;2023-04-25T00:23:32;5.13;;;1.93;;
26908;SDS011;14477;51.038;4.588;2023-04-25T00:26:00;5.22;;;2.10;;
26908;SDS011;14477;51.038;4.588;2023-04-25T00:28:26;4.18;;;2.08;;
26908;SDS011;14477;51.038;4.588;2023-04-25T00:30:52;5.90;;;2.22;;
26908;SDS011;14477;51.038;4.588;2023-04-25T00:33:18;4.67;;;1.97;;
26908;SDS011;14477;51.038;4.588;2023-04-25T00:35:44;4.05;;;1.85;;
26908;SDS011;14477;51.038;4.588;2023-04-25T00:38:10;5.47;;;1.63;;
26908;SDS011;14477;51.038;4.588;2023-04-25T00:40:35;4.87;;;2.07;;
26908;SDS011;14477;51.038;4.588;2023-04-25T00:43:01;3.57;;;1.50;;
26908;SDS011;14477;51.038;4.588;2023-04-25T00:45:27;4.63;;;1.70;;
26908;SDS011;14477;51.038;4.588;2023-04-25T00:47:56;4.07;;;1.90;;
26908;SDS011;14477;51.038;4.588;2023-04-25T00:50:23;5.70;;;1.53;;
26908;SDS011;14477;51.038;4.588;2023-04-25T00:52:49;3.42;;;1.38;;
26908;SDS011;14477;51.038;4.588;2023-04-25T00:55:15;4.13;;;1.38;;
26908;SDS011;14477;51.038;4.588;2023-04-25T00:57:41;9.35;;;1.90;;
26908;SDS011;14477;51.038;4.588;2023-04-25T01:00:07;6.07;;;2.20;;
26908;SDS011;14477;51.038;4.588;2023-04-25T01:02:39;4.53;;;1.40;;
26908;SDS011;14477;51.038;4.588;2023-04-25T01:05:06;4.30;;;1.50;;
26908;SDS011;14477;51.038;4.588;2023-04-25T01:07:33;4.43;;;1.52;;
26908;SDS011;14477;51.038;4.588;2023-04-25T01:09:59;3.43;;;1.47;;
26908;SDS011;14477;51.038;4.588;2023-04-25T01:12:25;3.72;;;1.48;;
26908;SDS011;14477;51.038;4.588;2023-04-25T01:14:50;4.17;;;1.70;;
26908;SDS011;14477;51.038;4.588;2023-04-25T01:17:17;3.63;;;1.83;;
26908;SDS011;14477;51.038;4.588;2023-04-25T01:19:43;3.55;;;1.60;;
26908;SDS011;14477;51.038;4.588;2023-04-25T01:22:11;4.63;;;1.30;;
26908;SDS011;14477;51.038;4.588;2023-04-25T01:24:37;3.20;;;1.42;;
26908;SDS011;14477;51.038;4.588;2023-04-25T01:27:03;4.82;;;1.67;;
26908;SDS011;14477;51.038;4.588;2023-04-25T01:29:30;4.07;;;1.40;;
26908;SDS011;14477;51.038;4.588;2023-04-25T01:31:57;3.55;;;1.25;;
26908;SDS011;14477;51.038;4.588;2023-04-25T01:34:24;3.93;;;1.50;;
26908;SDS011;14477;51.038;4.588;2023-04-25T01:36:50;5.00;;;1.65;;
26908;SDS011;14477;51.038;4.588;2023-04-25T01:39:19;5.05;;;1.50;;
26908;SDS011;14477;51.038;4.588;2023-04-25T01:41:48;2.88;;;1.40;;
26908;SDS011;14477;51.038;4.588;2023-04-25T01:44:14;3.67;;;1.23;;
26908;SDS011;14477;51.038;4.588;2023-04-25T01:46:40;3.30;;;1.40;;
26908;SDS011;14477;51.038;4.588;2023-04-25T01:49:06;4.25;;;1.30;;
26908;SDS011;14477;51.038;4.588;2023-04-25T01:51:32;2.92;;;1.05;;
26908;SDS011;14477;51.038;4.588;2023-04-25T01:53:58;3.93;;;1.40;;
26908;SDS011;14477;51.038;4.588;2023-04-25T01:56:25;4.97;;;1.77;;
26908;SDS011;14477;51.038;4.588;2023-04-25T01:58:55;5.07;;;1.75;;
26908;SDS011;14477;51.038;4.588;2023-04-25T02:01:22;3.25;;;1.30;;
26908;SDS011;14477;51.038;4.588;2023-04-25T02:03:47;3.83;;;1.30;;
26908;SDS011;14477;51.038;4.588;2023-04-25T02:06:13;2.88;;;1.35;;
26908;SDS011;14477;51.038;4.588;2023-04-25T02:08:39;4.40;;;1.40;;
26908;SDS011;14477;51.038;4.588;2023-04-25T02:11:05;6.47;;;1.73;;
26908;SDS011;14477;51.038;4.588;2023-04-25T02:13:30;4.03;;;1.53;;
26908;SDS011;14477;51.038;4.588;2023-04-25T02:15:56;3.95;;;1.50;;
26908;SDS011;14477;51.038;4.588;2023-04-25T02:18:22;3.38;;;1.42;;
26908;SDS011;14477;51.038;4.588;2023-04-25T02:20:48;4.23;;;1.33;;
26908;SDS011;14477;51.038;4.588;2023-04-25T02:23:14;6.38;;;1.65;;
26908;SDS011;14477;51.038;4.588;2023-04-25T02:25:41;2.67;;;1.40;;
26908;SDS011;14477;51.038;4.588;2023-04-25T02:28:07;3.97;;;1.30;;
26908;SDS011;14477;51.038;4.588;2023-04-25T02:30:32;4.38;;;1.25;;
26908;SDS011;14477;51.038;4.588;2023-04-25T02:32:58;3.50;;;1.37;;
26908;SDS011;14477;51.038;4.588;2023-04-25T02:35:24;3.90;;;1.40;;
26908;SDS011;14477;51.038;4.588;2023-04-25T02:37:50;2.47;;;1.25;;
26908;SDS011;14477;51.038;4.588;2023-04-25T02:40:16;5.97;;;1.42;;
26908;SDS011;14477;51.038;4.588;2023-04-25T02:42:42;3.37;;;1.30;;
26908;SDS011;14477;51.038;4.588;2023-04-25T02:45:10;4.22;;;1.58;;
26908;SDS011;14477;51.038;4.588;2023-04-25T02:47:36;3.28;;;1.60;;
26908;SDS011;14477;51.038;4.588;2023-04-25T02:50:01;3.07;;;1.50;;
26908;SDS011;14477;51.038;4.588;2023-04-25T02:52:28;4.97;;;1.80;;
26908;SDS011;14477;51.038;4.588;2023-04-25T02:54:53;3.13;;;1.52;;
26908;SDS011;14477;51.038;4.588;2023-04-25T02:57:19;6.33;;;1.73;;
26908;SDS011;14477;51.038;4.588;2023-04-25T02:59:45;5.13;;;1.75;;
26908;SDS011;14477;51.038;4.588;2023-04-25T03:02:11;5.30;;;1.90;;
26908;SDS011;14477;51.038;4.588;2023-04-25T03:04:37;6.47;;;1.90;;
26908;SDS011;14477;51.038;4.588;2023-04-25T03:07:03;4.88;;;1.92;;
26908;SDS011;14477;51.038;4.588;2023-04-25T03:09:29;4.40;;;1.63;;
26908;SDS011;14477;51.038;4.588;2023-04-25T03:11:55;3.80;;;1.70;;
26908;SDS011;14477;51.038;4.588;2023-04-25T03:14:20;3.67;;;1.50;;
26908;SDS011;14477;51.038;4.588;2023-04-25T03:16:46;4.47;;;1.87;;
26908;SDS011;14477;51.038;4.588;2023-04-25T03:19:12;3.25;;;1.40;;
26908;SDS011;14477;51.038;4.588;2023-04-25T03:21:40;5.95;;;1.60;;
26908;SDS011;14477;51.038;4.588;2023-04-25T03:24:06;3.63;;;1.83;;
26908;SDS011;14477;51.038;4.588;2023-04-25T03:26:32;4.30;;;1.38;;
26908;SDS011;14477;51.038;4.588;2023-04-25T03:28:58;2.90;;;1.40;;
26908;SDS011;14477;51.038;4.588;2023-04-25T03:31:24;3.40;;;1.50;;
26908;SDS011;14477;51.038;4.588;2023-04-25T03:33:50;3.88;;;1.50;;
26908;SDS011;14477;51.038;4.588;2023-04-25T03:36:16;5.65;;;1.70;;
26908;SDS011;14477;51.038;4.588;2023-04-25T03:38:42;3.37;;;1.60;;
26908;SDS011;14477;51.038;4.588;2023-04-25T03:41:08;3.15;;;1.60;;
26908;SDS011;14477;51.038;4.588;2023-04-25T03:43:34;4.50;;;1.60;;
26908;SDS011;14477;51.038;4.588;2023-04-25T03:46:00;3.97;;;1.40;;
26908;SDS011;14477;51.038;4.588;2023-04-25T03:48:26;2.57;;;1.23;;
26908;SDS011;14477;51.038;4.588;2023-04-25T03:50:52;3.85;;;1.40;;
26908;SDS011;14477;51.038;4.588;2023-04-25T03:53:18;2.95;;;1.35;;
26908;SDS011;14477;51.038;4.588;2023-04-25T03:55:44;3.20;;;1.30;;
26908;SDS011;14477;51.038;4.588;2023-04-25T03:58:10;5.40;;;1.57;;
26908;SDS011;14477;51.038;4.588;2023-04-25T04:00:36;4.72;;;1.65;;
26908;SDS011;14477;51.038;4.588;2023-04-25T04:03:02;3.03;;;1.40;;
26908;SDS011;14477;51.038;4.588;2023-04-25T04:05:27;4.15;;;1.75;;
26908;SDS011;14477;51.038;4.588;2023-04-25T04:07:54;4.43;;;1.45;;
26908;SDS011;14477;51.038;4.588;2023-04-25T04:10:20;4.28;;;1.58;;
26908;SDS011;14477;51.038;4.588;2023-04-25T04:12:46;2.77;;;1.40;;
26908;SDS011;14477;51.038;4.588;2023-04-25T04:15:12;4.45;;;1.65;;
26908;SDS011;14477;51.038;4.588;2023-04-25T04:17:38;4.72;;;1.50;;
26908;SDS011;14477;51.038;4.588;2023-04-25T04:20:04;3.03;;;1.30;;
26908;SDS011;14477;51.038;4.588;2023-04-25T04:22:31;3.47;;;1.47;;
26908;SDS011;14477;51.038;4.588;2023-04-25T04:24:57;4.00;;;1.50;;
26908;SDS011;14477;51.038;4.588;2023-04-25T04:27:23;4.53;;;1.45;;
26908;SDS011;14477;51.038;4.588;2023-04-25T04:29:49;4.23;;;1.47;;
26908;SDS011;14477;51.038;4.588;2023-04-25T04:32:17;3.05;;;1.55;;
26908;SDS011;14477;51.038;4.588;2023-04-25T04:34:44;3.92;;;1.52;;
26908;SDS011;14477;51.038;4.588;2023-04-25T04:37:12;4.22;;;1.70;;
26908;SDS011;14477;51.038;4.588;2023-04-25T04:39:38;4.53;;;1.60;;
26908;SDS011;14477;51.038;4.588;2023-04-25T04:42:04;5.45;;;1.80;;
26908;SDS011;14477;51.038;4.588;2023-04-25T04:44:30;8.63;;;1.85;;
26908;SDS011;14477;51.038;4.588;2023-04-25T04:46:58;4.93;;;1.50;;
26908;SDS011;14477;51.038;4.588;2023-04-25T04:49:24;2.85;;;1.48;;
26908;SDS011;14477;51.038;4.588;2023-04-25T04:51:49;4.68;;;1.70;;
26908;SDS011;14477;51.038;4.588;2023-04-25T04:54:15;5.57;;;2.03;;
26908;SDS011;14477;51.038;4.588;2023-04-25T04:56:41;4.15;;;1.80;;
26908;SDS011;14477;51.038;4.588;2023-04-25T04:59:07;5.88;;;1.58;;
26908;SDS011;14477;51.038;4.588;2023-04-25T05:01:33;4.40;;;2.10;;
26908;SDS011;14477;51.038;4.588;2023-04-25T05:04:02;4.47;;;2.00;;
26908;SDS011;14477;51.038;4.588;2023-04-25T05:06:29;5.65;;;2.47;;
26908;SDS011;14477;51.038;4.588;2023-04-25T05:08:56;4.80;;;2.33;;
26908;SDS011;14477;51.038;4.588;2023-04-25T05:11:23;5.43;;;2.60;;
26908;SDS011;14477;51.038;4.588;2023-04-25T05:13:51;4.38;;;2.05;;
26908;SDS011;14477;51.038;4.588;2023-04-25T05:16:18;3.57;;;1.87;;
26908;SDS011;14477;51.038;4.588;2023-04-25T05:18:43;5.22;;;1.90;;
26908;SDS011;14477;51.038;4.588;2023-04-25T05:21:09;5.00;;;2.10;;
26908;SDS011;14477;51.038;4.588;2023-04-25T05:23:35;4.97;;;2.00;;
26908;SDS011;14477;51.038;4.588;2023-04-25T05:26:01;3.53;;;1.85;;
26908;SDS011;14477;51.038;4.588;2023-04-25T05:28:27;4.78;;;1.67;;
26908;SDS011;14477;51.038;4.588;2023-04-25T05:30:53;4.70;;;1.87;;
26908;SDS011;14477;51.038;4.588;2023-04-25T05:33:19;4.07;;;1.65;;
26908;SDS011;14477;51.038;4.588;2023-04-25T05:35:45;4.03;;;1.92;;
26908;SDS011;14477;51.038;4.588;2023-04-25T05:38:11;6.70;;;2.57;;
26908;SDS011;14477;51.038;4.588;2023-04-25T05:40:36;5.50;;;2.15;;
26908;SDS011;14477;51.038;4.588;2023-04-25T05:43:02;4.80;;;1.60;;
26908;SDS011;14477;51.038;4.588;2023-04-25T05:45:28;4.43;;;1.87;;
26908;SDS011;14477;51.038;4.588;2023-04-25T05:47:54;3.65;;;2.00;;
26908;SDS011;14477;51.038;4.588;2023-04-25T05:50:20;4.83;;;1.73;;
26908;SDS011;14477;51.038;4.588;2023-04-25T05:52:46;6.10;;;2.40;;
26908;SDS011;14477;51.038;4.588;2023-04-25T05:55:11;6.03;;;2.70;;
26908;SDS011;14477;51.038;4.588;2023-04-25T05:57:37;3.42;;;1.70;;
26908;SDS011;14477;51.038;4.588;2023-04-25T06:00:06;3.67;;;1.70;;
26908;SDS011;14477;51.038;4.588;2023-04-25T06:02:34;5.23;;;2.17;;
26908;SDS011;14477;51.038;4.588;2023-04-25T06:05:00;3.83;;;1.73;;
26908;SDS011;14477;51.038;4.588;2023-04-25T06:07:28;6.20;;;1.90;;
26908;SDS011;14477;51.038;4.588;2023-04-25T06:09:55;5.45;;;1.80;;
26908;SDS011;14477;51.038;4.588;2023-04-25T06:12:20;3.93;;;2.00;;
26908;SDS011;14477;51.038;4.588;2023-04-25T06:14:46;4.70;;;1.90;;
26908;SDS011;14477;51.038;4.588;2023-04-25T06:17:12;3.83;;;2.20;;
26908;SDS011;14477;51.038;4.588;2023-04-25T06:19:37;5.70;;;1.80;;
26908;SDS011;14477;51.038;4.588;2023-04-25T06:22:03;3.83;;;2.00;;
26908;SDS011;14477;51.038;4.588;2023-04-25T06:24:29;4.50;;;1.70;;
26908;SDS011;14477;51.038;4.588;2023-04-25T06:26:55;5.97;;;1.80;;
26908;SDS011;14477;51.038;4.588;2023-04-25T06:29:21;4.70;;;1.92;;
26908;SDS011;14477;51.038;4.588;2023-04-25T06:31:47;3.23;;;1.90;;
26908;SDS011;14477;51.038;4.588;2023-04-25T06:34:13;4.78;;;1.88;;
26908;SDS011;14477;51.038;4.588;2023-04-25T06:36:38;3.57;;;1.73;;
26908;SDS011;14477;51.038;4.588;2023-04-25T06:39:06;3.25;;;1.85;;
26908;SDS011;14477;51.038;4.588;2023-04-25T06:41:32;4.28;;;1.92;;
26908;SDS011;14477;51.038;4.588;2023-04-25T06:43:57;3.50;;;1.83;;
26908;SDS011;14477;51.038;4.588;2023-04-25T06:46:23;5.25;;;1.85;;
26908;SDS011;14477;51.038;4.588;2023-04-25T06:48:49;3.97;;;1.83;;
26908;SDS011;14477;51.038;4.588;2023-04-25T06:51:15;5.18;;;1.95;;
26908;SDS011;14477;51.038;4.588;2023-04-25T06:53:41;3.92;;;1.67;;
26908;SDS011;14477;51.038;4.588;2023-04-25T06:56:06;5.17;;;1.83;;
26908;SDS011;14477;51.038;4.588;2023-04-25T06:58:32;3.90;;;1.63;;
26908;SDS011;14477;51.038;4.588;2023-04-25T07:00:57;5.63;;;1.85;;
26908;SDS011;14477;51.038;4.588;2023-04-25T07:03:23;5.03;;;2.10;;
26908;SDS011;14477;51.038;4.588;2023-04-25T07:05:49;3.70;;;2.00;;
26908;SDS011;14477;51.038;4.588;2023-04-25T07:08:16;4.18;;;2.05;;
26908;SDS011;14477;51.038;4.588;2023-04-25T07:10:42;4.23;;;2.00;;
26908;SDS011;14477;51.038;4.588;2023-04-25T07:13:08;4.75;;;2.15;;
26908;SDS011;14477;51.038;4.588;2023-04-25T07:15:34;4.72;;;1.98;;
26908;SDS011;14477;51.038;4.588;2023-04-25T07:18:00;4.43;;;1.98;;
26908;SDS011;14477;51.038;4.588;2023-04-25T07:20:26;3.93;;;2.00;;
26908;SDS011;14477;51.038;4.588;2023-04-25T07:22:52;5.90;;;1.90;;
26908;SDS011;14477;51.038;4.588;2023-04-25T07:25:18;3.35;;;1.75;;
26908;SDS011;14477;51.038;4.588;2023-04-25T07:27:45;2.90;;;1.40;;
26908;SDS011;14477;51.038;4.588;2023-04-25T07:30:10;3.53;;;1.70;;
26908;SDS011;14477;51.038;4.588;2023-04-25T07:32:37;2.55;;;1.27;;
26908;SDS011;14477;51.038;4.588;2023-04-25T07:35:03;4.25;;;1.35;;
26908;SDS011;14477;51.038;4.588;2023-04-25T07:37:32;3.40;;;1.20;;
26908;SDS011;14477;51.038;4.588;2023-04-25T07:39:58;3.47;;;1.30;;
26908;SDS011;14477;51.038;4.588;2023-04-25T07:42:24;3.10;;;1.60;;
26908;SDS011;14477;51.038;4.588;2023-04-25T07:44:50;3.83;;;1.40;;
26908;SDS011;14477;51.038;4.588;2023-04-25T07:47:16;3.58;;;1.42;;
26908;SDS011;14477;51.038;4.588;2023-04-25T07:49:44;2.58;;;1.17;;
26908;SDS011;14477;51.038;4.588;2023-04-25T07:52:10;2.53;;;1.10;;
26908;SDS011;14477;51.038;4.588;2023-04-25T07:54:37;3.63;;;1.30;;
26908;SDS011;14477;51.038;4.588;2023-04-25T07:57:03;3.07;;;1.30;;
26908;SDS011;14477;51.038;4.588;2023-04-25T07:59:31;2.83;;;1.20;;
26908;SDS011;14477;51.038;4.588;2023-04-25T08:01:57;3.47;;;1.63;;
26908;SDS011;14477;51.038;4.588;2023-04-25T08:04:24;2.30;;;1.30;;
26908;SDS011;14477;51.038;4.588;2023-04-25T08:06:50;3.65;;;1.45;;
26908;SDS011;14477;51.038;4.588;2023-04-25T08:09:17;2.67;;;1.40;;
26908;SDS011;14477;51.038;4.588;2023-04-25T08:11:43;2.63;;;1.50;;
26908;SDS011;14477;51.038;4.588;2023-04-25T08:14:09;3.00;;;1.27;;
26908;SDS011;14477;51.038;4.588;2023-04-25T08:16:34;2.87;;;1.40;;
26908;SDS011;14477;51.038;4.588;2023-04-25T08:19:00;4.05;;;1.40;;
26908;SDS011;14477;51.038;4.588;2023-04-25T08:21:26;3.63;;;1.50;;
26908;SDS011;14477;51.038;4.588;2023-04-25T08:23:52;4.17;;;1.87;;
26908;SDS011;14477;51.038;4.588;2023-04-25T08:26:18;3.63;;;1.65;;
26908;SDS011;14477;51.038;4.588;2023-04-25T08:28:43;3.77;;;1.50;;
26908;SDS011;14477;51.038;4.588;2023-04-25T08:31:09;2.95;;;1.70;;
26908;SDS011;14477;51.038;4.588;2023-04-25T08:33:35;5.37;;;2.00;;
26908;SDS011;14477;51.038;4.588;2023-04-25T08:36:01;4.10;;;1.67;;
26908;SDS011;14477;51.038;4.588;2023-04-25T08:38:27;3.88;;;1.50;;
26908;SDS011;14477;51.038;4.588;2023-04-25T08:40:53;4.93;;;1.60;;
26908;SDS011;14477;51.038;4.588;2023-04-25T08:43:20;6.40;;;2.22;;
26908;SDS011;14477;51.038;4.588;2023-04-25T08:45:46;7.43;;;2.60;;
26908;SDS011;14477;51.038;4.588;2023-04-25T08:48:13;3.42;;;1.60;;
26908;SDS011;14477;51.038;4.588;2023-04-25T08:50:53;3.33;;;1.70;;
26908;SDS011;14477;51.038;4.588;2023-04-25T08:53:30;3.67;;;1.40;;
26908;SDS011;14477;51.038;4.588;2023-04-25T08:55:58;2.13;;;1.30;;
26908;SDS011;14477;51.038;4.588;2023-04-25T08:58:25;4.15;;;1.20;;
26908;SDS011;14477;51.038;4.588;2023-04-25T09:00:52;2.90;;;1.30;;
26908;SDS011;14477;51.038;4.588;2023-04-25T09:03:17;4.70;;;1.40;;
26908;SDS011;14477;51.038;4.588;2023-04-25T09:05:44;6.20;;;1.52;;
26908;SDS011;14477;51.038;4.588;2023-04-25T09:08:10;3.72;;;1.50;;
26908;SDS011;14477;51.038;4.588;2023-04-25T09:10:36;2.13;;;1.50;;
26908;SDS011;14477;51.038;4.588;2023-04-25T09:13:06;3.07;;;1.30;;
26908;SDS011;14477;51.038;4.588;2023-04-25T09:15:49;2.00;;;1.17;;
26908;SDS011;14477;51.038;4.588;2023-04-25T09:18:24;2.72;;;1.25;;
26908;SDS011;14477;51.038;4.588;2023-04-25T09:20:54;3.55;;;1.40;;
26908;SDS011;14477;51.038;4.588;2023-04-25T09:23:21;3.72;;;1.52;;
26908;SDS011;14477;51.038;4.588;2023-04-25T09:25:51;3.77;;;1.20;;
26908;SDS011;14477;51.038;4.588;2023-04-25T09:28:25;3.17;;;1.20;;
26908;SDS011;14477;51.038;4.588;2023-04-25T09:30:55;3.38;;;1.17;;
26908;SDS011;14477;51.038;4.588;2023-04-25T09:33:28;3.22;;;1.48;;
26908;SDS011;14477;51.038;4.588;2023-04-25T09:36:01;4.25;;;1.30;;
26908;SDS011;14477;51.038;4.588;2023-04-25T09:38:40;2.73;;;1.20;;
26908;SDS011;14477;51.038;4.588;2023-04-25T09:41:10;3.08;;;1.20;;
26908;SDS011;14477;51.038;4.588;2023-04-25T09:43:36;1.88;;;1.20;;
26908;SDS011;14477;51.038;4.588;2023-04-25T09:46:07;2.67;;;1.10;;
26908;SDS011;14477;51.038;4.588;2023-04-25T09:48:34;2.38;;;1.00;;
26908;SDS011;14477;51.038;4.588;2023-04-25T09:53:29;3.90;;;1.30;;
26908;SDS011;14477;51.038;4.588;2023-04-25T09:55:55;2.63;;;1.10;;
26908;SDS011;14477;51.038;4.588;2023-04-25T09:58:22;2.70;;;1.20;;
26908;SDS011;14477;51.038;4.588;2023-04-25T10:00:52;2.90;;;1.25;;
26908;SDS011;14477;51.038;4.588;2023-04-25T10:03:23;1.83;;;1.00;;
26908;SDS011;14477;51.038;4.588;2023-04-25T10:05:50;2.33;;;1.10;;
26908;SDS011;14477;51.038;4.588;2023-04-25T10:08:17;1.60;;;1.02;;
26908;SDS011;14477;51.038;4.588;2023-04-25T10:10:45;2.60;;;1.23;;
26908;SDS011;14477;51.038;4.588;2023-04-25T10:13:11;2.33;;;1.15;;
26908;SDS011;14477;51.038;4.588;2023-04-25T10:15:39;2.63;;;1.10;;
26908;SDS011;14477;51.038;4.588;2023-04-25T10:18:06;2.60;;;1.15;;
26908;SDS011;14477;51.038;4.588;2023-04-25T10:20:32;2.22;;;0.90;;
26908;SDS011;14477;51.038;4.588;2023-04-25T10:23:02;2.83;;;1.10;;
26908;SDS011;14477;51.038;4.588;2023-04-25T10:25:36;3.67;;;1.10;;
26908;SDS011;14477;51.038;4.588;2023-04-25T10:28:03;2.60;;;1.02;;
26908;SDS011;14477;51.038;4.588;2023-04-25T10:30:29;2.92;;;1.10;;
26908;SDS011;14477;51.038;4.588;2023-04-25T10:32:55;2.40;;;1.07;;
26908;SDS011;14477;51.038;4.588;2023-04-25T10:35:24;2.08;;;1.20;;
26908;SDS011;14477;51.038;4.588;2023-04-25T10:37:59;3.45;;;1.27;;
26908;SDS011;14477;51.038;4.588;2023-04-25T10:40:24;2.22;;;1.38;;
26908;SDS011;14477;51.038;4.588;2023-04-25T10:42:54;2.33;;;1.20;;
26908;SDS011;14477;51.038;4.588;2023-04-25T10:45:21;3.50;;;1.08;;
26908;SDS011;14477;51.038;4.588;2023-04-25T10:47:47;2.95;;;1.20;;
26908;SDS011;14477;51.038;4.588;2023-04-25T10:50:16;2.85;;;1.20;;
26908;SDS011;14477;51.038;4.588;2023-04-25T10:52:42;1.98;;;1.10;;
26908;SDS011;14477;51.038;4.588;2023-04-25T10:55:09;2.27;;;1.20;;
26908;SDS011;14477;51.038;4.588;2023-04-25T10:57:44;4.80;;;1.73;;
26908;SDS011;14477;51.038;4.588;2023-04-25T11:00:15;4.20;;;1.73;;
26908;SDS011;14477;51.038;4.588;2023-04-25T11:10:24;3.75;;;1.80;;
26908;SDS011;14477;51.038;4.588;2023-04-25T11:12:51;3.83;;;1.58;;
26908;SDS011;14477;51.038;4.588;2023-04-25T11:15:17;3.03;;;1.40;;
26908;SDS011;14477;51.038;4.588;2023-04-25T11:17:42;3.13;;;1.40;;
26908;SDS011;14477;51.038;4.588;2023-04-25T11:20:11;3.42;;;1.20;;
26908;SDS011;14477;51.038;4.588;2023-04-25T11:22:38;4.53;;;1.10;;
26908;SDS011;14477;51.038;4.588;2023-04-25T11:25:07;3.22;;;1.10;;
26908;SDS011;14477;51.038;4.588;2023-04-25T11:27:37;2.42;;;1.20;;
26908;SDS011;14477;51.038;4.588;2023-04-25T11:30:11;2.13;;;1.20;;
26908;SDS011;14477;51.038;4.588;2023-04-25T11:32:39;2.17;;;1.20;;
26908;SDS011;14477;51.038;4.588;2023-04-25T11:35:05;2.37;;;1.10;;
26908;SDS011;14477;51.038;4.588;2023-04-25T11:37:32;4.60;;;1.00;;
26908;SDS011;14477;51.038;4.588;2023-04-25T11:39:59;1.77;;;1.00;;
26908;SDS011;14477;51.038;4.588;2023-04-25T11:42:26;3.78;;;1.23;;
26908;SDS011;14477;51.038;4.588;2023-04-25T11:44:51;3.50;;;1.15;;
26908;SDS011;14477;51.038;4.588;2023-04-25T11:47:17;3.07;;;1.20;;
26908;SDS011;14477;51.038;4.588;2023-04-25T11:49:43;2.42;;;1.20;;
26908;SDS011;14477;51.038;4.588;2023-04-25T11:52:09;1.73;;;1.00;;
26908;SDS011;14477;51.038;4.588;2023-04-25T11:54:35;2.70;;;1.10;;
26908;SDS011;14477;51.038;4.588;2023-04-25T11:57:02;1.55;;;1.08;;
26908;SDS011;14477;51.038;4.588;2023-04-25T11:59:28;1.90;;;0.90;;
26908;SDS011;14477;51.038;4.588;2023-04-25T12:01:54;1.87;;;1.00;;
26908;SDS011;14477;51.038;4.588;2023-04-25T12:04:21;2.33;;;1.30;;
26908;SDS011;14477;51.038;4.588;2023-04-25T12:06:50;1.40;;;1.00;;
26908;SDS011;14477;51.038;4.588;2023-04-25T12:09:17;1.10;;;0.90;;
26908;SDS011;14477;51.038;4.588;2023-04-25T12:11:54;1.47;;;1.00;;
26908;SDS011;14477;51.038;4.588;2023-04-25T12:14:22;3.10;;;1.20;;
26908;SDS011;14477;51.038;4.588;2023-04-25T12:16:50;2.95;;;1.02;;
26908;SDS011;14477;51.038;4.588;2023-04-25T12:19:19;3.15;;;1.08;;
26908;SDS011;14477;51.038;4.588;2023-04-25T12:21:45;1.52;;;1.00;;
26908;SDS011;14477;51.038;4.588;2023-04-25T12:24:14;1.90;;;0.97;;
26908;SDS011;14477;51.038;4.588;2023-04-25T12:26:58;1.17;;;0.80;;
26908;SDS011;14477;51.038;4.588;2023-04-25T12:29:27;2.00;;;0.90;;
26908;SDS011;14477;51.038;4.588;2023-04-25T12:31:55;1.85;;;1.00;;
26908;SDS011;14477;51.038;4.588;2023-04-25T12:34:21;3.45;;;1.15;;
26908;SDS011;14477;51.038;4.588;2023-04-25T12:36:48;1.60;;;0.77;;
26908;SDS011;14477;51.038;4.588;2023-04-25T12:39:18;1.98;;;0.70;;
26908;SDS011;14477;51.038;4.588;2023-04-25T12:41:47;1.77;;;0.80;;
26908;SDS011;14477;51.038;4.588;2023-04-25T12:44:13;1.55;;;0.80;;
26908;SDS011;14477;51.038;4.588;2023-04-25T12:46:40;1.60;;;0.90;;
26908;SDS011;14477;51.038;4.588;2023-04-25T12:49:06;1.83;;;0.90;;
26908;SDS011;14477;51.038;4.588;2023-04-25T12:51:33;2.05;;;0.90;;
26908;SDS011;14477;51.038;4.588;2023-04-25T12:54:00;1.52;;;0.90;;
26908;SDS011;14477;51.038;4.588;2023-04-25T12:56:26;1.35;;;0.80;;
26908;SDS011;14477;51.038;4.588;2023-04-25T12:58:53;1.60;;;0.75;;
26908;SDS011;14477;51.038;4.588;2023-04-25T13:01:19;2.90;;;0.80;;
26908;SDS011;14477;51.038;4.588;2023-04-25T13:03:45;2.70;;;0.93;;
26908;SDS011;14477;51.038;4.588;2023-04-25T13:06:12;2.58;;;0.90;;
26908;SDS011;14477;51.038;4.588;2023-04-25T13:08:38;2.85;;;1.00;;
26908;SDS011;14477;51.038;4.588;2023-04-25T13:11:04;2.00;;;0.90;;
26908;SDS011;14477;51.038;4.588;2023-04-25T13:13:31;1.33;;;1.02;;
26908;SDS011;14477;51.038;4.588;2023-04-25T13:16:00;1.67;;;0.90;;
26908;SDS011;14477;51.038;4.588;2023-04-25T13:18:30;1.48;;;1.00;;
26908;SDS011;14477;51.038;4.588;2023-04-25T13:20:56;1.73;;;1.08;;
26908;SDS011;14477;51.038;4.588;2023-04-25T13:23:24;2.50;;;1.20;;
26908;SDS011;14477;51.038;4.588;2023-04-25T13:25:51;2.03;;;1.00;;
26908;SDS011;14477;51.038;4.588;2023-04-25T13:28:17;2.33;;;1.00;;
26908;SDS011;14477;51.038;4.588;2023-04-25T13:30:42;2.73;;;1.00;;
26908;SDS011;14477;51.038;4.588;2023-04-25T13:33:08;2.95;;;1.10;;
26908;SDS011;14477;51.038;4.588;2023-04-25T13:35:35;2.45;;;1.10;;
26908;SDS011;14477;51.038;4.588;2023-04-25T13:38:02;1.52;;;1.10;;
26908;SDS011;14477;51.038;4.588;2023-04-25T13:40:28;2.50;;;0.90;;
26908;SDS011;14477;51.038;4.588;2023-04-25T13:42:54;2.35;;;1.02;;
26908;SDS011;14477;51.038;4.588;2023-04-25T13:45:20;2.22;;;0.98;;
26908;SDS011;14477;51.038;4.588;2023-04-25T13:47:46;2.53;;;1.10;;
26908;SDS011;14477;51.038;4.588;2023-04-25T13:50:12;2.15;;;0.98;;
26908;SDS011;14477;51.038;4.588;2023-04-25T13:52:39;4.00;;;1.30;;
26908;SDS011;14477;51.038;4.588;2023-04-25T13:55:05;1.85;;;1.05;;
26908;SDS011;14477;51.038;4.588;2023-04-25T13:57:32;1.55;;;0.93;;
26908;SDS011;14477;51.038;4.588;2023-04-25T13:59:59;2.47;;;1.00;;
26908;SDS011;14477;51.038;4.588;2023-04-25T14:02:29;1.33;;;0.80;;
26908;SDS011;14477;51.038;4.588;2023-04-25T14:04:55;1.10;;;0.70;;
26908;SDS011;14477;51.038;4.588;2023-04-25T14:07:21;1.77;;;0.80;;
26908;SDS011;14477;51.038;4.588;2023-04-25T14:09:47;1.77;;;0.80;;
26908;SDS011;14477;51.038;4.588;2023-04-25T14:12:13;2.08;;;0.88;;
26908;SDS011;14477;51.038;4.588;2023-04-25T14:14:38;3.17;;;0.95;;
26908;SDS011;14477;51.038;4.588;2023-04-25T14:17:04;4.10;;;1.10;;
26908;SDS011;14477;51.038;4.588;2023-04-25T14:19:31;1.77;;;0.80;;
26908;SDS011;14477;51.038;4.588;2023-04-25T14:21:57;2.33;;;0.70;;
26908;SDS011;14477;51.038;4.588;2023-04-25T14:24:22;1.80;;;0.87;;
26908;SDS011;14477;51.038;4.588;2023-04-25T14:26:48;3.10;;;0.80;;
26908;SDS011;14477;51.038;4.588;2023-04-25T14:29:14;1.40;;;1.00;;
26908;SDS011;14477;51.038;4.588;2023-04-25T14:31:40;2.00;;;0.98;;
26908;SDS011;14477;51.038;4.588;2023-04-25T14:34:06;3.63;;;1.10;;
26908;SDS011;14477;51.038;4.588;2023-04-25T14:36:32;3.27;;;1.00;;
26908;SDS011;14477;51.038;4.588;2023-04-25T14:38:59;2.67;;;1.00;;
26908;SDS011;14477;51.038;4.588;2023-04-25T14:41:25;2.42;;;0.95;;
26908;SDS011;14477;51.038;4.588;2023-04-25T14:43:51;2.28;;;1.10;;
26908;SDS011;14477;51.038;4.588;2023-04-25T14:46:21;2.33;;;0.90;;
26908;SDS011;14477;51.038;4.588;2023-04-25T14:48:48;1.98;;;0.90;;
26908;SDS011;14477;51.038;4.588;2023-04-25T14:51:14;2.17;;;1.10;;
26908;SDS011;14477;51.038;4.588;2023-04-25T14:53:40;5.38;;;1.63;;
26908;SDS011;14477;51.038;4.588;2023-04-25T14:56:06;1.80;;;1.00;;